createdAt,value
2023-01-26T00:02:00.936Z,-3.35
2023-01-26T00:05:02.738Z,-3.36
2023-01-26T00:08:04.556Z,-3.37
2023-01-26T00:11:06.507Z,-3.41
2023-01-26T00:14:08.102Z,-3.45
2023-01-26T00:17:11.039Z,-3.47
2023-01-26T00:20:13.142Z,-3.48
2023-01-26T00:23:14.967Z,-3.54
2023-01-26T00:26:18.201Z,-3.56
2023-01-26T00:29:19.799Z,-3.68
2023-01-26T00:32:22.870Z,-3.62
2023-01-26T00:35:24.790Z,-3.60
2023-01-26T00:38:26.436Z,-3.52
2023-01-26T00:41:48.356Z,-3.60
2023-01-26T00:44:50.981Z,-3.56
2023-01-26T00:47:53.992Z,-3.58
2023-01-26T00:50:55.659Z,-3.59
2023-01-26T00:53:57.357Z,-3.57
2023-01-26T00:56:59.246Z,-3.55
2023-01-26T01:00:01.264Z,-3.50
2023-01-26T01:03:04.522Z,-3.46
2023-01-26T01:06:06.044Z,-3.47
2023-01-26T01:09:08.006Z,-3.45
2023-01-26T01:12:10.121Z,-3.47
2023-01-26T01:15:12.052Z,-3.45
2023-01-26T01:18:15.297Z,-3.42
2023-01-26T01:21:17.776Z,-3.42
2023-01-26T01:24:19.565Z,-3.36
2023-01-26T01:27:21.328Z,-3.40
2023-01-26T01:30:22.860Z,-3.39
2023-01-26T01:33:25.990Z,-3.41
2023-01-26T01:36:29.286Z,-3.43
2023-01-26T01:39:30.902Z,-3.47
2023-01-26T01:42:33.484Z,-3.45
2023-01-26T01:45:42.360Z,-3.47
2023-01-26T01:48:49.108Z,-3.46
2023-01-26T01:51:52.417Z,-3.46
2023-01-26T01:55:01.912Z,-3.43
2023-01-26T01:58:04.275Z,-3.42
2023-01-26T02:01:05.890Z,-3.41
2023-01-26T02:04:09.509Z,-3.39
2023-01-26T02:07:14.563Z,-3.43
2023-01-26T02:10:20.061Z,-3.37
2023-01-26T02:13:22.758Z,-3.30
2023-01-26T02:16:24.418Z,-3.28
2023-01-26T02:19:33.042Z,-3.28
2023-01-26T02:22:41.354Z,-3.21
2023-01-26T02:25:47.419Z,-3.16
2023-01-26T02:28:50.733Z,-3.13
2023-01-26T02:31:53.719Z,-3.04
2023-01-26T02:34:57.318Z,-2.98
2023-01-26T02:37:59.467Z,-2.98
2023-01-26T02:41:03.038Z,-2.97
2023-01-26T02:44:08.853Z,-2.87
2023-01-26T02:47:11.976Z,-2.85
2023-01-26T02:50:15.295Z,-2.87
2023-01-26T02:53:18.660Z,-2.90
2023-01-26T02:56:20.243Z,-2.85
2023-01-26T02:59:23.271Z,-2.87
2023-01-26T03:02:25.487Z,-2.84
2023-01-26T03:05:27.788Z,-2.82
2023-01-26T03:08:30.522Z,-2.81
2023-01-26T03:11:42.113Z,-2.82
2023-01-26T03:14:45.648Z,-2.79
2023-01-26T03:17:47.565Z,-2.76
2023-01-26T03:21:07.844Z,-2.72
2023-01-26T03:24:30.514Z,-2.74
2023-01-26T03:27:35.984Z,-2.75
2023-01-26T03:30:39.660Z,-2.79
2023-01-26T03:33:41.674Z,-2.84
2023-01-26T03:36:44.592Z,-2.92
2023-01-26T03:40:08.545Z,-2.89
2023-01-26T03:43:29.085Z,-2.82
2023-01-26T03:46:51.113Z,-2.79
2023-01-26T03:50:11.849Z,-2.93
2023-01-26T03:53:31.434Z,-2.89
2023-01-26T03:56:33.804Z,-2.91
2023-01-26T03:59:40.735Z,-2.96
2023-01-26T04:03:04.983Z,-2.96
2023-01-26T04:06:25.431Z,-2.97
2023-01-26T04:09:27.549Z,-2.91
2023-01-26T04:12:30.620Z,-2.89
2023-01-26T04:16:01.115Z,-2.87
2023-01-26T04:19:23.112Z,-2.92
2023-01-26T04:22:25.661Z,-2.92
2023-01-26T04:25:27.402Z,-3.07
2023-01-26T04:28:31.536Z,-3.14
2023-01-26T04:31:33.651Z,-3.07
2023-01-26T04:34:37.271Z,-3.07
2023-01-26T04:37:47.791Z,-3.05
2023-01-26T04:40:52.890Z,-3.02
2023-01-26T04:43:54.659Z,-2.98
2023-01-26T04:46:57.368Z,-2.98
2023-01-26T04:50:00.570Z,-2.98
2023-01-26T04:53:02.355Z,-2.90
2023-01-26T04:56:05.164Z,-2.85
2023-01-26T04:59:08.190Z,-2.82
2023-01-26T05:02:12.694Z,-2.81
2023-01-26T05:05:15.824Z,-2.83
2023-01-26T05:08:18.847Z,-2.85
2023-01-26T05:11:20.493Z,-2.86
2023-01-26T05:14:39.648Z,-2.88
2023-01-26T05:18:01.623Z,-2.94
2023-01-26T05:21:25.117Z,-2.97
2023-01-26T05:24:27.066Z,-2.96
2023-01-26T05:27:42.989Z,-2.95
2023-01-26T05:30:45.029Z,-2.92
2023-01-26T05:33:46.971Z,-3.01
2023-01-26T05:36:55.369Z,-3.02
2023-01-26T05:39:57.484Z,-3.00
2023-01-26T05:42:59.149Z,-3.00
2023-01-26T05:46:39.608Z,-3.00
2023-01-26T05:49:45.891Z,-2.97
2023-01-26T05:52:54.288Z,-2.95
2023-01-26T05:55:56.108Z,-2.94
2023-01-26T05:58:59.973Z,-2.95
2023-01-26T06:02:01.884Z,-2.98
2023-01-26T06:05:04.029Z,-3.00
2023-01-26T06:08:07.499Z,-2.99
2023-01-26T06:11:23.341Z,-2.89
2023-01-26T06:14:39.177Z,-2.92
2023-01-26T06:17:41.588Z,-2.87
2023-01-26T06:20:45.167Z,-2.86
2023-01-26T06:23:48.453Z,-2.82
2023-01-26T06:26:50.587Z,-2.85
2023-01-26T06:29:53.590Z,-2.85
2023-01-26T06:32:55.396Z,-2.88
2023-01-26T06:36:01.293Z,-2.88
2023-01-26T06:39:04.371Z,-2.90
2023-01-26T06:42:08.045Z,-2.89
2023-01-26T06:45:10.603Z,-2.88
2023-01-26T06:48:13.721Z,-2.89
2023-01-26T06:51:40.563Z,-2.89
2023-01-26T06:54:43.671Z,-2.93
2023-01-26T06:57:54.642Z,-2.93
2023-01-26T07:01:14.995Z,-2.87
2023-01-26T07:04:17.383Z,-2.86
2023-01-26T07:07:19.034Z,-2.85
2023-01-26T07:10:22.544Z,-2.91
2023-01-26T07:13:24.134Z,-2.85
2023-01-26T07:16:25.869Z,-2.86
2023-01-26T07:19:30.029Z,-2.83
2023-01-26T07:22:31.780Z,-2.83
2023-01-26T07:25:34.993Z,-2.81
2023-01-26T07:28:39.233Z,-2.82
2023-01-26T07:31:41.775Z,-2.83
2023-01-26T07:34:43.419Z,-2.84
2023-01-26T07:37:45.344Z,-2.75
2023-01-26T07:40:48.372Z,-2.70
2023-01-26T07:43:51.003Z,-2.74
2023-01-26T07:46:54.561Z,-2.72
2023-01-26T07:49:56.446Z,-2.66
2023-01-26T07:53:00.095Z,-2.63
2023-01-26T07:56:07.305Z,-2.57
2023-01-26T07:59:10.572Z,-2.53
2023-01-26T08:02:12.156Z,-2.50
2023-01-26T08:05:13.880Z,-2.39
2023-01-26T08:08:15.821Z,-2.41
2023-01-26T08:11:19.439Z,-2.39
2023-01-26T08:14:21.033Z,-2.35
2023-01-26T08:17:22.817Z,-2.35
2023-01-26T08:20:24.498Z,-2.41
2023-01-26T08:23:26.068Z,-2.38
2023-01-26T08:26:29.590Z,-2.35
2023-01-26T08:29:31.339Z,-2.33
2023-01-26T08:32:33.123Z,-2.26
2023-01-26T08:35:34.857Z,-2.25
2023-01-26T08:38:36.823Z,-2.26
2023-01-26T08:41:39.999Z,-2.23
2023-01-26T08:44:41.764Z,-2.16
2023-01-26T08:47:43.310Z,-2.21
2023-01-26T08:50:44.980Z,-2.24
2023-01-26T08:53:46.828Z,-2.23
2023-01-26T08:56:49.933Z,-2.26
2023-01-26T08:59:51.690Z,-2.21
2023-01-26T09:02:58.788Z,-2.20
2023-01-26T09:06:01.354Z,-2.23
2023-01-26T09:09:02.997Z,-2.20
2023-01-26T09:12:06.405Z,-2.19
2023-01-26T09:15:09.029Z,-2.18
2023-01-26T09:18:10.960Z,-2.11
2023-01-26T09:21:12.654Z,-2.11
2023-01-26T09:24:14.465Z,-2.09
2023-01-26T09:27:18.652Z,-2.07
2023-01-26T09:30:20.537Z,-2.13
2023-01-26T09:33:22.972Z,-2.08
2023-01-26T09:36:24.717Z,-2.05
2023-01-26T09:39:26.405Z,-2.02
2023-01-26T09:42:35.686Z,-1.98
2023-01-26T09:45:43.057Z,-1.98
2023-01-26T09:48:47.335Z,-1.97
2023-01-26T09:51:51.229Z,-2.02
2023-01-26T09:54:54.734Z,-2.11
2023-01-26T09:58:00.805Z,-2.06
2023-01-26T10:01:03.474Z,-2.03
2023-01-26T10:04:10.864Z,-2.02
2023-01-26T10:07:14.452Z,-1.95
2023-01-26T10:10:26.711Z,-1.89
2023-01-26T10:13:29.893Z,-1.81
2023-01-26T10:16:33.915Z,-1.83
2023-01-26T10:19:39.891Z,-1.84
2023-01-26T10:22:44.197Z,-1.87
2023-01-26T10:25:51.068Z,-1.81
2023-01-26T10:28:54.223Z,-1.80
2023-01-26T10:31:55.795Z,-1.80
2023-01-26T10:34:57.721Z,-1.79
2023-01-26T10:37:59.469Z,-1.79
2023-01-26T10:41:02.010Z,-1.87
2023-01-26T10:44:21.587Z,-1.84
2023-01-26T10:47:23.539Z,-1.84
2023-01-26T10:50:25.691Z,-1.85
2023-01-26T10:53:29.668Z,-1.82
2023-01-26T10:56:32.132Z,-1.72
2023-01-26T10:59:39.218Z,-1.72
2023-01-26T11:02:49.173Z,-1.71
2023-01-26T11:06:04.997Z,-1.60
2023-01-26T11:09:11.059Z,-1.59
2023-01-26T11:12:17.899Z,-1.62
2023-01-26T11:15:22.124Z,-1.59
2023-01-26T11:18:31.901Z,-1.62
2023-01-26T11:21:36.721Z,-1.61
2023-01-26T11:24:42.705Z,-1.59
2023-01-26T11:27:51.495Z,-1.46
2023-01-26T11:31:04.817Z,-1.55
2023-01-26T11:34:16.153Z,-1.58
2023-01-26T11:37:30.739Z,-1.49
2023-01-26T11:40:40.794Z,-1.56
2023-01-26T11:44:00.525Z,-1.54
2023-01-26T11:47:10.780Z,-1.53
2023-01-26T11:50:23.118Z,-1.48
2023-01-26T11:53:36.291Z,-1.49
2023-01-26T11:56:42.408Z,-1.47
2023-01-26T11:59:46.826Z,-1.46
2023-01-26T12:02:54.104Z,-1.49
2023-01-26T12:05:57.836Z,-1.52
2023-01-26T12:09:02.863Z,-1.44
2023-01-26T12:12:09.272Z,-1.41
2023-01-26T12:15:13.555Z,-1.47
2023-01-26T12:18:21.339Z,-1.48
2023-01-26T12:21:23.023Z,-1.50
2023-01-26T12:27:56.060Z,-1.48
2023-01-26T12:31:05.388Z,-1.50
2023-01-26T12:34:13.180Z,-1.50
2023-01-26T12:37:31.779Z,-1.48
2023-01-26T12:40:36.872Z,-1.52
2023-01-26T12:43:46.181Z,-1.48
2023-01-26T12:50:15.498Z,-1.41
2023-01-26T12:53:23.071Z,-1.42
2023-01-26T12:56:30.614Z,-1.40
2023-01-26T12:59:47.185Z,-1.43
2023-01-26T13:02:53.358Z,-1.38
2023-01-26T13:05:58.549Z,-1.35
2023-01-26T13:09:04.393Z,-1.33
2023-01-26T13:12:27.699Z,-1.31
2023-01-26T13:15:30.336Z,-1.33
2023-01-26T13:18:48.116Z,-1.33
2023-01-26T13:21:52.622Z,-1.34
2023-01-26T13:24:56.834Z,-1.33
2023-01-26T13:27:59.402Z,-1.23
2023-01-26T13:31:04.761Z,-1.20
2023-01-26T13:34:08.397Z,-1.19
2023-01-26T13:37:15.351Z,-1.15
2023-01-26T13:40:19.403Z,-1.18
2023-01-26T13:43:28.371Z,-1.19
2023-01-26T13:46:32.108Z,-1.19
2023-01-26T13:49:37.722Z,-1.14
2023-01-26T13:52:45.358Z,-1.09
2023-01-26T13:55:50.800Z,-1.11
2023-01-26T13:58:53.112Z,-1.10
2023-01-26T14:01:56.313Z,-1.13
2023-01-26T14:04:59.413Z,-1.11
2023-01-26T14:08:02.980Z,-1.17
2023-01-26T14:11:06.708Z,-1.20
2023-01-26T14:14:24.347Z,-1.19
2023-01-26T14:17:27.699Z,-1.22
2023-01-26T14:23:39.380Z,-1.20
2023-01-26T14:26:42.115Z,-1.17
2023-01-26T14:29:43.886Z,-1.14
2023-01-26T14:32:45.689Z,-1.16
2023-01-26T14:35:55.203Z,-1.27
2023-01-26T14:39:03.585Z,-1.23
2023-01-26T14:42:05.977Z,-1.23
2023-01-26T14:45:12.693Z,-1.22
2023-01-26T14:48:17.370Z,-1.21
2023-01-26T14:51:20.664Z,-1.20
2023-01-26T14:54:25.833Z,-1.12
2023-01-26T14:57:28.345Z,-1.14
2023-01-26T15:00:32.830Z,-1.17
2023-01-26T15:03:36.798Z,-1.17
2023-01-26T15:06:38.861Z,-1.14
2023-01-26T15:09:42.033Z,-1.14
2023-01-26T15:12:44.025Z,-1.12
2023-01-26T15:15:48.855Z,-1.07
2023-01-26T15:18:58.222Z,-1.12
2023-01-26T15:22:00.165Z,-1.17
2023-01-26T15:25:06.071Z,-1.11
2023-01-26T15:28:15.959Z,-1.10
2023-01-26T15:31:20.798Z,-1.15
2023-01-26T15:34:30.349Z,-1.17
2023-01-26T15:37:33.802Z,-1.19
2023-01-26T15:40:38.863Z,-1.27
2023-01-26T15:43:40.770Z,-1.25
2023-01-26T15:46:43.031Z,-1.24
2023-01-26T15:49:44.931Z,-1.22
2023-01-26T15:52:46.921Z,-1.18
2023-01-26T15:55:52.994Z,-1.21
2023-01-26T15:58:55.249Z,-1.19
2023-01-26T16:01:57.343Z,-1.18
2023-01-26T16:04:59.237Z,-1.17
2023-01-26T16:08:01.216Z,-1.19
2023-01-26T16:11:11.886Z,-1.20
2023-01-26T16:14:13.827Z,-1.18
2023-01-26T16:17:18.025Z,-1.15
2023-01-26T16:20:19.715Z,-1.10
2023-01-26T16:23:22.519Z,-1.03
2023-01-26T16:26:27.433Z,-1.03
2023-01-26T16:29:29.366Z,-1.04
2023-01-26T16:32:31.028Z,-1.03
2023-01-26T16:35:32.740Z,-0.98
2023-01-26T16:38:34.648Z,-0.96
2023-01-26T16:41:40.787Z,-0.98
2023-01-26T16:44:42.536Z,-0.95
2023-01-26T16:47:44.289Z,-0.93
2023-01-26T16:50:46.151Z,-0.93
2023-01-26T16:53:47.971Z,-0.95
2023-01-26T16:56:51.465Z,-0.99
2023-01-26T16:59:53.352Z,-0.99
2023-01-26T17:02:55.193Z,-0.94
2023-01-26T17:05:57.191Z,-0.92
2023-01-26T17:09:00.699Z,-0.89
2023-01-26T17:12:04.548Z,-0.86
2023-01-26T17:15:07.315Z,-0.84
2023-01-26T17:18:10.997Z,-0.79
2023-01-26T17:21:13.497Z,-0.79
2023-01-26T17:24:15.606Z,-0.74
2023-01-26T17:27:18.824Z,-0.73
2023-01-26T17:30:21.085Z,-0.70
2023-01-26T17:33:22.961Z,-0.75
2023-01-26T17:36:24.985Z,-0.80
2023-01-26T17:39:27.044Z,-0.88
2023-01-26T17:42:35.167Z,-0.96
2023-01-26T17:45:37.415Z,-0.94
2023-01-26T17:48:39.381Z,-0.99
2023-01-26T17:51:41.586Z,-1.01
2023-01-26T17:54:43.283Z,-0.95
2023-01-26T17:57:46.505Z,-0.97
2023-01-26T18:00:48.410Z,-0.93
2023-01-26T18:03:51.616Z,-0.94
2023-01-26T18:06:55.640Z,-0.89
2023-01-26T18:09:57.616Z,-0.90
2023-01-26T18:13:01.159Z,-0.91
2023-01-26T18:16:04.787Z,-0.87
2023-01-26T18:19:06.662Z,-0.90
2023-01-26T18:22:09.324Z,-0.93
2023-01-26T18:25:11.866Z,-0.88
2023-01-26T18:28:16.770Z,-0.93
2023-01-26T18:31:20.195Z,-0.94
2023-01-26T18:34:21.983Z,-0.89
2023-01-26T18:37:23.680Z,-0.87
2023-01-26T18:40:25.714Z,-0.88
2023-01-26T18:43:35.464Z,-0.84
2023-01-26T18:46:42.675Z,-0.85
2023-01-26T18:49:47.223Z,-0.83
2023-01-26T18:52:49.022Z,-0.81
2023-01-26T18:55:55.355Z,-0.77
2023-01-26T18:58:58.759Z,-0.71
2023-01-26T19:02:00.514Z,-0.68
2023-01-26T19:05:02.420Z,-0.65
2023-01-26T19:08:10.741Z,-0.59
2023-01-26T19:11:12.702Z,-0.53
2023-01-26T19:14:16.023Z,-0.48
2023-01-26T19:17:18.149Z,-0.43
2023-01-26T19:20:21.357Z,-0.42
2023-01-26T19:23:23.213Z,-0.36
2023-01-26T19:26:26.259Z,-0.33
2023-01-26T19:29:29.558Z,-0.35
2023-01-26T19:32:31.518Z,-0.37
2023-01-26T19:35:36.554Z,-0.34
2023-01-26T19:38:39.374Z,-0.26
2023-01-26T19:41:41.263Z,-0.22
2023-01-26T19:44:44.448Z,-0.17
2023-01-26T19:47:47.822Z,-0.12
2023-01-26T19:50:59.775Z,-0.08
2023-01-26T19:54:01.613Z,-0.06
2023-01-26T19:57:03.323Z,-0.05
2023-01-26T20:00:07.505Z,-0.05
2023-01-26T20:03:14.142Z,-0.01
2023-01-26T20:06:16.434Z,-0.01
2023-01-26T20:09:18.211Z,0.02
2023-01-26T20:12:20.409Z,0.03
2023-01-26T20:15:23.504Z,0.02
2023-01-26T20:18:25.513Z,0.02
2023-01-26T20:21:28.014Z,0.03
2023-01-26T20:24:29.963Z,0.05
2023-01-26T20:27:32.077Z,0.03
2023-01-26T20:30:35.959Z,0.01
2023-01-26T20:33:38.519Z,0.02
2023-01-26T20:36:41.095Z,-0.01
2023-01-26T20:39:46.966Z,0.01
2023-01-26T20:42:49.084Z,-0.01
2023-01-26T20:45:52.221Z,0.02
2023-01-26T20:48:55.757Z,0.02
2023-01-26T20:51:58.493Z,0.00
2023-01-26T20:55:02.195Z,0.01
2023-01-26T20:58:06.790Z,0.03
2023-01-26T21:01:10.829Z,0.03
2023-01-26T21:04:12.660Z,0.02
2023-01-26T21:07:15.220Z,0.02
2023-01-26T21:10:17.027Z,0.04
2023-01-26T21:13:19.082Z,0.03
2023-01-26T21:16:23.144Z,0.05
2023-01-26T21:19:25.023Z,0.05
2023-01-26T21:22:26.524Z,0.04
2023-01-26T21:25:28.364Z,0.03
2023-01-26T21:28:30.627Z,0.03
2023-01-26T21:31:34.106Z,0.03
2023-01-26T21:34:35.705Z,0.02
2023-01-26T21:37:37.290Z,0.01
2023-01-26T21:40:38.913Z,0.02
2023-01-26T21:43:40.715Z,0.01
2023-01-26T21:46:43.913Z,-0.01
2023-01-26T21:49:46.820Z,-0.03
2023-01-26T21:52:57.394Z,-0.04
2023-01-26T21:55:59.109Z,-0.05
2023-01-26T21:59:04.628Z,-0.05
2023-01-26T22:02:09.381Z,-0.06
2023-01-26T22:05:11.342Z,-0.07
2023-01-26T22:08:13.198Z,-0.07
2023-01-26T22:11:15.181Z,-0.08
2023-01-26T22:14:18.511Z,-0.08
2023-01-26T22:17:21.768Z,-0.08
2023-01-26T22:20:23.427Z,-0.10
2023-01-26T22:23:25.469Z,-0.11
2023-01-26T22:26:27.194Z,-0.11
2023-01-26T22:29:28.961Z,-0.09
2023-01-26T22:32:32.007Z,-0.09
2023-01-26T22:35:33.828Z,-0.08
2023-01-26T22:38:36.169Z,-0.09
2023-01-26T22:41:38.071Z,-0.09
2023-01-26T22:44:40.349Z,-0.08
2023-01-26T22:47:43.396Z,-0.09
2023-01-26T22:50:46.662Z,-0.08
2023-01-26T22:53:49.480Z,-0.08
2023-01-26T22:56:52.369Z,-0.07
2023-01-26T22:59:54.290Z,-0.07
2023-01-26T23:02:57.352Z,-0.07
2023-01-26T23:05:59.708Z,-0.07
2023-01-26T23:09:04.733Z,-0.08
2023-01-26T23:12:06.876Z,-0.09
2023-01-26T23:15:09.128Z,-0.07
2023-01-26T23:18:12.287Z,-0.06
2023-01-26T23:21:14.043Z,-0.05
2023-01-26T23:24:15.986Z,-0.05
2023-01-26T23:27:17.912Z,-0.05
2023-01-26T23:30:19.895Z,-0.05
2023-01-26T23:33:24.130Z,-0.03
2023-01-26T23:36:28.447Z,-0.02
2023-01-26T23:42:41.503Z,-0.01
2023-01-26T23:45:52.336Z,0.01
2023-01-26T23:48:55.642Z,0.02
2023-01-26T23:51:57.534Z,0.01
2023-01-26T23:54:59.294Z,0.01
2023-01-26T23:58:01.398Z,0.03
